createdAt,value
2022-12-13T00:00:24.673Z,100798.34
2022-12-13T00:02:54.757Z,100788.50
2022-12-13T00:05:24.572Z,100783.28
2022-12-13T00:07:54.527Z,100787.97
2022-12-13T00:10:26.942Z,100789.22
2022-12-13T00:12:56.727Z,100785.25
2022-12-13T00:15:26.478Z,100785.63
2022-12-13T00:17:56.220Z,100785.47
2022-12-13T00:20:26.009Z,100783.00
2022-12-13T00:22:55.733Z,100777.41
2022-12-13T00:25:28.531Z,100780.88
2022-12-13T00:27:58.353Z,100770.34
2022-12-13T00:30:31.601Z,100758.88
2022-12-13T00:33:01.887Z,100767.50
2022-12-13T00:35:31.706Z,100763.28
2022-12-13T00:38:01.444Z,100759.16
2022-12-13T00:40:34.014Z,100761.63
2022-12-13T00:43:03.761Z,100761.13
2022-12-13T00:45:33.509Z,100763.47
2022-12-13T00:48:03.490Z,100755.38
2022-12-13T00:50:33.294Z,100750.03
2022-12-13T00:53:03.858Z,100752.03
2022-12-13T00:55:36.236Z,100725.78
2022-12-13T00:58:06.011Z,100740.22
2022-12-13T01:00:36.859Z,100732.38
2022-12-13T01:03:20.586Z,100749.41
2022-12-13T01:06:14.264Z,100751.41
2022-12-13T01:08:40.924Z,100727.03
2022-12-13T01:11:14.540Z,100741.97
2022-12-13T01:13:44.882Z,100737.72
2022-12-13T01:16:16.371Z,100740.97
2022-12-13T01:18:46.144Z,100740.22
2022-12-13T01:21:18.458Z,100748.72
2022-12-13T01:23:48.592Z,100744.69
2022-12-13T01:26:22.730Z,100736.41
2022-12-13T01:28:52.753Z,100747.47
2022-12-13T01:31:23.624Z,100748.44
2022-12-13T01:33:53.498Z,100753.56
2022-12-13T01:36:27.879Z,100756.56
2022-12-13T01:38:59.414Z,100749.69
2022-12-13T01:41:34.493Z,100747.19
2022-12-13T01:44:05.961Z,100761.53
2022-12-13T01:46:37.214Z,100762.25
2022-12-13T01:49:19.828Z,100759.66
2022-12-13T01:51:53.093Z,100752.44
2022-12-13T01:54:34.074Z,100750.56
2022-12-13T01:57:10.636Z,100751.69
2022-12-13T01:59:42.393Z,100745.00
2022-12-13T02:02:15.169Z,100739.97
2022-12-13T02:04:51.535Z,100745.72
2022-12-13T02:07:24.533Z,100736.75
2022-12-13T02:09:56.403Z,100733.00
2022-12-13T02:12:32.225Z,100746.19
2022-12-13T02:15:03.724Z,100749.81
2022-12-13T02:17:49.757Z,100744.94
2022-12-13T02:20:36.793Z,100741.13
2022-12-13T02:23:21.528Z,100742.47
2022-12-13T02:26:18.780Z,100738.38
2022-12-13T02:29:11.450Z,100742.47
2022-12-13T02:31:50.736Z,100735.78
2022-12-13T02:34:25.695Z,100744.09
2022-12-13T02:37:04.699Z,100738.72
2022-12-13T02:39:57.061Z,100740.22
2022-12-13T02:42:32.516Z,100732.28
2022-12-13T02:45:09.088Z,100736.88
2022-12-13T02:47:44.591Z,100735.13
2022-12-13T02:50:17.554Z,100698.84
2022-12-13T02:52:48.196Z,100698.69
2022-12-13T02:55:22.847Z,100718.97
2022-12-13T02:57:55.001Z,100721.09
2022-12-13T03:00:32.098Z,100725.44
2022-12-13T03:03:18.751Z,100719.34
2022-12-13T03:06:09.148Z,100710.25
2022-12-13T03:08:50.557Z,100714.72
2022-12-13T03:11:23.066Z,100716.63
2022-12-13T03:13:54.088Z,100718.22
2022-12-13T03:16:30.231Z,100717.72
2022-12-13T03:19:04.918Z,100719.97
2022-12-13T03:21:46.995Z,100718.59
2022-12-13T03:24:20.086Z,100710.63
2022-12-13T03:26:52.084Z,100699.56
2022-12-13T03:29:25.139Z,100721.81
2022-12-13T03:31:55.442Z,100717.72
2022-12-13T03:34:44.753Z,100712.59
2022-12-13T03:37:17.210Z,100692.19
2022-12-13T03:39:47.091Z,100710.47
2022-12-13T03:42:17.823Z,100717.47
2022-12-13T03:44:47.612Z,100717.34
2022-12-13T03:47:17.571Z,100715.44
2022-12-13T03:49:54.205Z,100702.63
2022-12-13T03:52:24.265Z,100718.66
2022-12-13T03:54:54.148Z,100705.75
2022-12-13T03:57:23.927Z,100719.78
2022-12-13T03:59:53.706Z,100721.28
2022-12-13T04:02:31.426Z,100710.59
2022-12-13T04:05:04.032Z,100714.47
2022-12-13T04:07:34.361Z,100715.81
2022-12-13T04:10:04.495Z,100716.81
2022-12-13T04:13:06.841Z,100726.75
2022-12-13T04:15:36.606Z,100723.03
2022-12-13T04:18:06.697Z,100718.06
2022-12-13T04:20:39.040Z,100722.53
2022-12-13T04:23:10.282Z,100714.09
2022-12-13T04:25:40.780Z,100710.75
2022-12-13T04:28:11.083Z,100718.81
2022-12-13T04:30:40.973Z,100703.38
2022-12-13T04:33:10.775Z,100714.09
2022-12-13T04:35:43.142Z,100712.22
2022-12-13T04:38:12.935Z,100713.81
2022-12-13T04:40:42.741Z,100708.97
2022-12-13T04:43:12.760Z,100717.31
2022-12-13T04:45:42.692Z,100713.84
2022-12-13T04:48:13.804Z,100708.63
2022-12-13T04:51:05.014Z,100708.25
2022-12-13T04:53:34.833Z,100719.31
2022-12-13T04:56:06.033Z,100718.66
2022-12-13T04:58:36.080Z,100714.72
2022-12-13T05:01:09.607Z,100708.88
2022-12-13T05:03:40.156Z,100710.31
2022-12-13T05:06:27.530Z,100710.31
2022-12-13T05:09:00.589Z,100708.69
2022-12-13T05:11:35.925Z,100707.34
2022-12-13T05:14:06.462Z,100694.50
2022-12-13T05:16:36.289Z,100706.00
2022-12-13T05:19:06.064Z,100667.56
2022-12-13T05:21:38.413Z,100691.22
2022-12-13T05:24:10.400Z,100698.66
2022-12-13T05:26:40.139Z,100697.13
2022-12-13T05:29:09.891Z,100691.78
2022-12-13T05:31:39.738Z,100689.06
2022-12-13T05:34:09.618Z,100694.28
2022-12-13T05:36:41.962Z,100633.06
2022-12-13T05:39:27.824Z,100699.88
2022-12-13T05:42:02.755Z,100681.47
2022-12-13T05:44:34.358Z,100668.53
2022-12-13T05:47:04.206Z,100694.78
2022-12-13T05:49:34.146Z,100684.91
2022-12-13T05:52:06.580Z,100694.13
2022-12-13T05:54:36.334Z,100684.44
2022-12-13T05:57:06.161Z,100702.44
2022-12-13T05:59:36.206Z,100703.69
2022-12-13T06:02:06.228Z,100701.13
2022-12-13T06:04:36.300Z,100700.72
2022-12-13T06:07:08.799Z,100702.25
2022-12-13T06:09:40.244Z,100698.38
2022-12-13T06:12:31.198Z,100666.44
2022-12-13T06:15:01.721Z,100681.84
2022-12-13T06:17:33.769Z,100689.16
2022-12-13T06:20:23.499Z,100662.31
2022-12-13T06:22:56.445Z,100685.31
2022-12-13T06:25:31.516Z,100674.94
2022-12-13T06:28:02.213Z,100674.22
2022-12-13T06:30:32.266Z,100671.00
2022-12-13T06:33:02.214Z,100676.25
2022-12-13T06:35:35.261Z,100678.25
2022-12-13T06:38:11.707Z,100679.25
2022-12-13T06:40:42.493Z,100657.00
2022-12-13T06:43:12.330Z,100674.03
2022-12-13T06:45:43.209Z,100675.03
2022-12-13T06:48:16.287Z,100669.69
2022-12-13T06:50:50.122Z,100686.22
2022-12-13T06:53:24.893Z,100680.25
2022-12-13T06:55:56.064Z,100680.63
2022-12-13T06:58:27.088Z,100685.34
2022-12-13T07:01:04.826Z,100681.72
2022-12-13T07:03:35.007Z,100684.22
2022-12-13T07:06:08.734Z,100685.34
2022-12-13T07:08:41.158Z,100681.47
2022-12-13T07:11:11.383Z,100687.28
2022-12-13T07:13:41.181Z,100696.75
2022-12-13T07:16:11.458Z,100692.16
2022-12-13T07:18:41.735Z,100696.41
2022-12-13T07:21:22.008Z,100703.63
2022-12-13T07:23:55.616Z,100702.88
2022-12-13T07:26:26.555Z,100705.75
2022-12-13T07:28:56.358Z,100709.13
2022-12-13T07:31:29.782Z,100710.38
2022-12-13T07:34:00.073Z,100646.91
2022-12-13T07:36:30.886Z,100718.06
2022-12-13T07:39:04.311Z,100690.34
2022-12-13T07:41:34.095Z,100717.31
2022-12-13T07:44:03.961Z,100718.06
2022-12-13T07:46:34.136Z,100733.00
2022-12-13T07:49:05.010Z,100727.78
2022-12-13T07:51:39.656Z,100719.06
2022-12-13T07:54:15.235Z,100728.25
2022-12-13T07:56:45.947Z,100732.13
2022-12-13T07:59:16.316Z,100726.53
2022-12-13T08:02:01.902Z,100737.97
2022-12-13T08:04:37.839Z,100713.81
2022-12-13T08:07:11.968Z,100711.19
2022-12-13T08:09:53.019Z,100733.22
2022-12-13T08:12:23.205Z,100745.06
2022-12-13T08:14:53.947Z,100740.22
2022-12-13T08:17:24.937Z,100739.50
2022-12-13T08:19:54.727Z,100700.88
2022-12-13T08:22:27.755Z,100735.28
2022-12-13T08:25:12.709Z,100735.88
2022-12-13T08:27:43.205Z,100722.47
2022-12-13T08:30:18.929Z,100729.78
2022-12-13T08:32:53.539Z,100714.00
2022-12-13T08:35:23.295Z,100734.91
2022-12-13T08:37:56.814Z,100732.66
2022-12-13T08:40:33.483Z,100732.78
2022-12-13T08:43:03.597Z,100734.25
2022-12-13T08:45:34.486Z,100732.66
2022-12-13T08:48:05.520Z,100702.84
2022-12-13T08:50:36.327Z,100718.94
2022-12-13T08:53:08.082Z,100726.66
2022-12-13T08:55:40.485Z,100701.97
2022-12-13T08:58:11.265Z,100703.09
2022-12-13T09:00:42.758Z,100719.53
2022-12-13T09:03:12.609Z,100722.78
2022-12-13T09:05:42.468Z,100727.75
2022-12-13T09:08:24.710Z,100727.88
2022-12-13T09:11:11.211Z,100729.97
2022-12-13T09:13:52.411Z,100725.53
2022-12-13T09:16:36.464Z,100710.84
2022-12-13T09:19:25.150Z,100725.22
2022-12-13T09:22:02.884Z,100731.19
2022-12-13T09:24:36.607Z,100735.91
2022-12-13T09:27:10.400Z,100726.75
2022-12-13T09:29:57.435Z,100723.13
2022-12-13T09:32:27.767Z,100720.34
2022-12-13T09:34:57.802Z,100725.13
2022-12-13T09:37:32.209Z,100709.16
2022-12-13T09:40:16.345Z,100729.75
2022-12-13T09:43:12.740Z,100732.59
2022-12-13T09:45:48.639Z,100733.69
2022-12-13T09:48:23.232Z,100739.34
2022-12-13T09:51:16.579Z,100740.56
2022-12-13T09:53:52.291Z,100737.78
2022-12-13T09:56:25.091Z,100735.03
2022-12-13T09:58:59.448Z,100722.94
2022-12-13T10:01:32.742Z,100739.78
2022-12-13T10:04:03.922Z,100731.41
2022-12-13T10:06:35.244Z,100738.59
2022-12-13T10:09:05.122Z,100740.09
2022-12-13T10:11:38.747Z,100744.91
2022-12-13T10:14:15.688Z,100742.31
2022-12-13T10:16:49.574Z,100737.63
2022-12-13T10:19:28.269Z,100722.06
2022-12-13T10:22:04.622Z,100728.63
2022-12-13T10:24:52.784Z,100723.59
2022-12-13T10:27:31.488Z,100718.81
2022-12-13T10:30:08.541Z,100720.88
2022-12-13T10:32:48.803Z,100716.66
2022-12-13T10:35:25.950Z,100715.91
2022-12-13T10:38:00.151Z,100704.41
2022-12-13T10:40:35.260Z,100665.84
2022-12-13T10:43:16.028Z,100715.59
2022-12-13T10:46:02.492Z,100711.28
2022-12-13T10:48:40.386Z,100715.41
2022-12-13T10:51:20.114Z,100712.81
2022-12-13T10:53:53.554Z,100713.00
2022-12-13T10:56:25.978Z,100703.19
2022-12-13T10:59:17.301Z,100701.81
2022-12-13T11:01:50.217Z,100689.81
2022-12-13T11:04:28.380Z,100701.66
2022-12-13T11:07:00.500Z,100687.22
2022-12-13T11:09:38.240Z,100686.75
2022-12-13T11:12:16.453Z,100628.91
2022-12-13T11:14:55.548Z,100678.50
2022-12-13T11:17:34.368Z,100664.72
2022-12-13T11:20:18.425Z,100675.22
2022-12-13T11:23:01.686Z,100674.00
2022-12-13T11:25:38.630Z,100670.25
2022-12-13T11:28:27.078Z,100665.22
2022-12-13T11:31:09.198Z,100651.47
2022-12-13T11:33:54.896Z,100631.34
2022-12-13T11:36:35.427Z,100647.47
2022-12-13T11:39:23.251Z,100643.09
2022-12-13T11:41:58.895Z,100643.06
2022-12-13T11:44:47.745Z,100635.66
2022-12-13T11:47:27.335Z,100637.19
2022-12-13T11:50:02.676Z,100632.34
2022-12-13T11:52:38.597Z,100625.19
2022-12-13T11:55:17.609Z,100619.72
2022-12-13T11:57:57.954Z,100626.56
2022-12-13T12:00:37.085Z,100613.84
2022-12-13T12:03:20.091Z,100616.72
2022-12-13T12:06:00.355Z,100613.53
2022-12-13T12:08:41.102Z,100614.91
2022-12-13T12:11:19.513Z,100579.66
2022-12-13T12:13:55.662Z,100602.19
2022-12-13T12:16:38.588Z,100591.31
2022-12-13T12:19:16.281Z,100596.22
2022-12-13T12:22:16.226Z,100601.31
2022-12-13T12:25:00.161Z,100595.16
2022-12-13T12:27:41.482Z,100598.34
2022-12-13T12:30:22.498Z,100594.19
2022-12-13T12:33:02.679Z,100604.88
2022-12-13T12:36:04.663Z,100602.75
2022-12-13T12:39:02.354Z,100594.56
2022-12-13T12:41:43.584Z,100598.72
2022-12-13T12:44:24.262Z,100595.72
2022-12-13T12:50:27.043Z,100585.59
2022-12-13T12:53:05.488Z,100586.75
2022-12-13T12:55:49.276Z,100586.75
2022-12-13T12:58:26.804Z,100571.91
2022-12-13T13:01:15.335Z,100568.94
2022-12-13T13:03:46.281Z,100571.31
2022-12-13T13:06:22.843Z,100571.88
2022-12-13T13:08:56.832Z,100570.13
2022-12-13T13:11:43.074Z,100554.78
2022-12-13T13:14:37.871Z,100572.16
2022-12-13T13:17:43.269Z,100567.75
2022-12-13T13:20:26.055Z,100561.97
2022-12-13T13:23:39.136Z,100564.75
2022-12-13T13:26:24.305Z,100560.22
2022-12-13T13:28:50.064Z,100573.53
2022-12-13T13:31:20.169Z,100567.88
2022-12-13T13:33:51.498Z,100569.38
2022-12-13T13:36:52.688Z,100562.47
2022-12-13T13:39:55.854Z,100560.75
2022-12-13T13:42:28.824Z,100566.22
2022-12-13T13:45:25.236Z,100565.25
2022-12-13T13:48:15.847Z,100563.19
2022-12-13T13:51:29.858Z,100560.84
2022-12-13T13:54:30.914Z,100565.56
2022-12-13T13:57:45.596Z,100572.56
2022-12-13T14:00:25.482Z,100580.34
2022-12-13T14:03:36.100Z,100569.44
2022-12-13T14:06:37.376Z,100574.63
2022-12-13T14:09:24.431Z,100559.81
2022-12-13T14:12:25.978Z,100565.19
2022-12-13T14:15:25.814Z,100568.31
2022-12-13T14:18:38.101Z,100571.25
2022-12-13T14:21:15.663Z,100564.94
2022-12-13T14:24:09.299Z,100578.09
2022-12-13T14:26:51.614Z,100576.69
2022-12-13T14:29:26.921Z,100577.19
2022-12-13T14:31:56.904Z,100594.59
2022-12-13T14:34:31.225Z,100586.19
2022-12-13T14:37:03.230Z,100586.91
2022-12-13T14:39:34.814Z,100584.81
2022-12-13T14:42:24.456Z,100600.53
2022-12-13T14:44:55.160Z,100596.03
2022-12-13T14:47:25.776Z,100593.25
2022-12-13T14:49:59.330Z,100611.59
2022-12-13T14:52:34.810Z,100601.44
2022-12-13T14:55:06.204Z,100610.50
2022-12-13T14:57:37.779Z,100579.66
2022-12-13T15:00:26.028Z,100598.34
2022-12-13T15:02:59.907Z,100604.16
2022-12-13T15:05:36.574Z,100594.03
2022-12-13T15:08:11.614Z,100584.38
2022-12-13T15:10:48.395Z,100587.00
2022-12-13T15:13:29.001Z,100587.66
2022-12-13T15:16:10.402Z,100577.25
2022-12-13T15:18:50.479Z,100583.78
2022-12-13T15:21:28.124Z,100579.63
2022-12-13T15:24:01.951Z,100583.41
2022-12-13T15:26:34.708Z,100571.47
2022-12-13T15:29:10.914Z,100573.00
2022-12-13T15:31:41.142Z,100561.34
2022-12-13T15:34:28.303Z,100563.88
2022-12-13T15:37:05.945Z,100549.03
2022-12-13T15:39:40.827Z,100557.69
2022-12-13T15:42:21.672Z,100562.31
2022-12-13T15:44:56.228Z,100572.06
2022-12-13T15:47:28.590Z,100566.75
2022-12-13T15:50:00.842Z,100544.56
2022-12-13T15:52:38.881Z,100560.28
2022-12-13T15:55:28.990Z,100548.81
2022-12-13T15:58:00.455Z,100547.94
2022-12-13T16:00:31.934Z,100552.59
2022-12-13T16:03:09.601Z,100553.06
2022-12-13T16:05:43.456Z,100528.75
2022-12-13T16:08:28.906Z,100506.28
2022-12-13T16:11:00.232Z,100540.31
2022-12-13T16:13:32.981Z,100535.97
2022-12-13T16:16:09.143Z,100529.41
2022-12-13T16:18:49.165Z,100540.50
2022-12-13T16:21:19.318Z,100536.72
2022-12-13T16:23:51.778Z,100543.25
2022-12-13T16:26:26.378Z,100541.97
2022-12-13T16:28:58.657Z,100551.91
2022-12-13T16:31:35.452Z,100537.06
2022-12-13T16:34:05.872Z,100533.38
2022-12-13T16:36:36.760Z,100524.94
2022-12-13T16:39:12.591Z,100534.72
2022-12-13T16:41:48.226Z,100534.50
2022-12-13T16:44:25.585Z,100528.31
2022-12-13T16:47:13.384Z,100526.94
2022-12-13T16:49:45.257Z,100523.06
2022-12-13T16:52:15.085Z,100528.38
2022-12-13T16:54:48.426Z,100518.06
2022-12-13T16:57:18.247Z,100518.50
2022-12-13T16:59:47.996Z,100520.88
2022-12-13T17:02:20.426Z,100507.44
2022-12-13T17:04:50.199Z,100517.13
2022-12-13T17:07:19.922Z,100507.69
2022-12-13T17:09:53.286Z,100507.44
2022-12-13T17:12:22.993Z,100505.50
2022-12-13T17:14:52.764Z,100505.50
2022-12-13T17:17:22.596Z,100504.13
2022-12-13T17:19:53.512Z,100512.66
2022-12-13T17:22:23.371Z,100495.38
2022-12-13T17:24:55.712Z,100512.94
2022-12-13T17:27:25.542Z,100500.38
2022-12-13T17:29:56.389Z,100508.75
2022-12-13T17:32:26.388Z,100504.53
2022-12-13T17:34:56.381Z,100509.53
2022-12-13T17:37:26.425Z,100521.38
2022-12-13T17:39:59.104Z,100509.66
2022-12-13T17:42:29.035Z,100518.88
2022-12-13T17:44:58.780Z,100503.16
2022-12-13T17:47:29.555Z,100485.81
2022-12-13T17:49:59.503Z,100467.34
2022-12-13T17:52:29.330Z,100490.03
2022-12-13T17:55:04.587Z,100507.28
2022-12-13T17:57:35.093Z,100514.56
2022-12-13T18:00:06.970Z,100502.41
2022-12-13T18:02:42.423Z,100481.69
2022-12-13T18:05:26.334Z,100492.84
2022-12-13T18:07:56.228Z,100497.41
2022-12-13T18:10:30.310Z,100497.53
2022-12-13T18:13:00.286Z,100507.50
2022-12-13T18:15:30.186Z,100507.16
2022-12-13T18:18:15.950Z,100501.75
2022-12-13T18:20:46.524Z,100497.47
2022-12-13T18:23:16.766Z,100503.16
2022-12-13T18:25:51.080Z,100502.38
2022-12-13T18:28:22.141Z,100504.56
2022-12-13T18:30:52.013Z,100499.56
2022-12-13T18:33:24.413Z,100491.88
2022-12-13T18:35:54.455Z,100492.75
2022-12-13T18:38:26.215Z,100476.13
2022-12-13T18:41:00.719Z,100475.72
2022-12-13T18:43:30.484Z,100483.81
2022-12-13T18:46:04.795Z,100475.03
2022-12-13T18:48:35.267Z,100473.97
2022-12-13T18:51:07.899Z,100479.41
2022-12-13T18:53:39.273Z,100478.31
2022-12-13T18:56:18.369Z,100468.97
2022-12-13T18:58:50.230Z,100468.63
2022-12-13T19:01:21.366Z,100482.88
2022-12-13T19:03:51.711Z,100483.72
2022-12-13T19:06:24.341Z,100443.25
2022-12-13T19:08:55.645Z,100473.41
2022-12-13T19:11:29.226Z,100473.19
2022-12-13T19:13:59.418Z,100458.97
2022-12-13T19:16:29.575Z,100466.81
2022-12-13T19:19:00.387Z,100472.09
2022-12-13T19:21:30.277Z,100463.94
2022-12-13T19:24:01.450Z,100451.16
2022-12-13T19:26:35.069Z,100461.81
2022-12-13T19:29:05.457Z,100446.72
2022-12-13T19:31:35.633Z,100463.53
2022-12-13T19:34:05.590Z,100445.97
2022-12-13T19:36:35.490Z,100462.03
2022-12-13T19:39:05.293Z,100464.41
2022-12-13T19:41:37.822Z,100457.91
2022-12-13T19:44:08.384Z,100453.34
2022-12-13T19:46:38.291Z,100440.88
2022-12-13T19:49:08.157Z,100444.03
2022-12-13T19:51:39.958Z,100444.34
2022-12-13T19:54:10.774Z,100446.22
2022-12-13T19:56:43.419Z,100436.88
2022-12-13T19:59:13.755Z,100432.03
2022-12-13T20:01:43.882Z,100428.84
2022-12-13T20:04:14.019Z,100427.34
2022-12-13T20:06:43.916Z,100423.66
2022-12-13T20:09:13.753Z,100411.19
2022-12-13T20:11:47.120Z,100412.19
2022-12-13T20:14:16.909Z,100400.16
2022-12-13T20:16:46.713Z,100414.34
2022-12-13T20:19:18.090Z,100403.72
2022-12-13T20:21:52.330Z,100383.56
2022-12-13T20:24:26.436Z,100410.88
2022-12-13T20:26:58.798Z,100405.78
2022-12-13T20:29:29.639Z,100372.06
2022-12-13T20:31:59.657Z,100398.19
2022-12-13T20:34:31.848Z,100405.22
2022-12-13T20:37:01.734Z,100400.47
2022-12-13T20:39:31.535Z,100392.00
2022-12-13T20:42:04.850Z,100382.03
2022-12-13T20:44:35.700Z,100386.94
2022-12-13T20:47:06.592Z,100367.28
2022-12-13T20:49:36.387Z,100375.97
2022-12-13T20:52:06.638Z,100373.91
2022-12-13T20:54:37.721Z,100354.94
2022-12-13T20:57:10.159Z,100372.91
2022-12-13T20:59:40.007Z,100369.22
2022-12-13T21:02:12.890Z,100363.63
2022-12-13T21:04:42.756Z,100370.03
2022-12-13T21:07:12.670Z,100365.47
2022-12-13T21:09:42.580Z,100363.34
2022-12-13T21:12:14.913Z,100356.88
2022-12-13T21:14:44.641Z,100336.31
2022-12-13T21:17:17.241Z,100362.88
2022-12-13T21:19:48.915Z,100352.66
2022-12-13T21:22:19.314Z,100356.69
2022-12-13T21:24:49.561Z,100349.53
2022-12-13T21:27:22.451Z,100336.94
2022-12-13T21:29:52.329Z,100327.75
2022-12-13T21:32:22.172Z,100322.84
2022-12-13T21:34:51.982Z,100346.91
2022-12-13T21:37:21.786Z,100347.47
2022-12-13T21:39:51.577Z,100346.72
2022-12-13T21:42:24.015Z,100348.97
2022-12-13T21:45:00.475Z,100323.22
2022-12-13T21:47:31.903Z,100319.53
2022-12-13T21:50:01.711Z,100236.63
2022-12-13T21:52:31.530Z,100312.91
2022-12-13T21:55:22.149Z,100313.34
2022-12-13T21:58:11.615Z,100330.44
2022-12-13T22:00:41.507Z,100318.06
2022-12-13T22:03:11.347Z,100333.47
2022-12-13T22:05:41.126Z,100329.34
2022-12-13T22:08:10.992Z,100268.03
2022-12-13T22:11:01.409Z,100326.97
2022-12-13T22:13:34.810Z,100312.66
2022-12-13T22:16:05.678Z,100315.06
2022-12-13T22:18:36.823Z,100312.13
2022-12-13T22:21:06.799Z,100318.19
2022-12-13T22:23:36.575Z,100308.53
2022-12-13T22:26:09.059Z,100316.78
2022-12-13T22:28:42.652Z,100310.72
2022-12-13T22:31:12.454Z,100315.06
2022-12-13T22:33:42.292Z,100311.03
2022-12-13T22:36:12.719Z,100305.31
2022-12-13T22:38:42.489Z,100274.22
2022-12-13T22:41:16.051Z,100300.66
2022-12-13T22:43:48.574Z,100301.66
2022-12-13T22:46:20.756Z,100295.66
2022-12-13T22:48:51.897Z,100292.75
2022-12-13T22:51:22.546Z,100305.09
2022-12-13T22:53:52.322Z,100294.88
2022-12-13T22:56:24.250Z,100300.31
2022-12-13T22:59:01.314Z,100293.09
2022-12-13T23:01:33.835Z,100291.78
2022-12-13T23:04:04.249Z,100294.56
2022-12-13T23:06:35.848Z,100280.06
2022-12-13T23:09:08.921Z,100255.03
2022-12-13T23:11:51.176Z,100276.25
2022-12-13T23:14:29.074Z,100261.22
2022-12-13T23:17:00.172Z,100256.53
2022-12-13T23:19:49.120Z,100286.47
2022-12-13T23:22:24.736Z,100271.38
2022-12-13T23:24:55.210Z,100277.78
2022-12-13T23:27:26.306Z,100281.78
2022-12-13T23:29:58.742Z,100279.09
2022-12-13T23:32:28.576Z,100270.63
2022-12-13T23:34:59.394Z,100273.88
2022-12-13T23:37:30.361Z,100267.59
2022-12-13T23:40:01.161Z,100265.22
2022-12-13T23:42:31.852Z,100259.81
2022-12-13T23:45:04.220Z,100260.44
2022-12-13T23:47:35.013Z,100258.84
2022-12-13T23:50:04.792Z,100267.63
2022-12-13T23:52:34.687Z,100265.88
2022-12-13T23:55:04.904Z,100252.88
2022-12-13T23:57:34.770Z,100256.06
